Salo, Minnesota
Current Conditions -  °F | °C
As of 5:27 AM on Saturday 22 Nov 2014 (Local Time) from KHZX Reporting Station
Clear Clear  
Wind Chill: 22°   Ceiling: Unl
Heat Index: 28°   Visibility: 5mi
Dew Point: 27°   Wind: 6mph
Humidity: 93%   Direction: 200°SSW
Pressure: 29.68"   Gusts: NA
Location:  46.7232°N, 93.3159°W
Report Text: KHZX 221127Z AUTO 20005KT 5SM CLR M02/M03 A2968 RMK AO2
Loading
Personal Weather Stations






























Interactive Weather Map New forecast layout! Learn more

10-Day Weather Forecast

Advertisements
Track Severe Weather on mobile